Logo
Newest Metar:
CYQR 201800Z 27006KT 15SM BKN100 19/03 A3002 RMK AC7 SLP178 DENSITY ALT 2800FT

Last 10 Metars:
CYQR 201700Z 24006KT 15SM BKN110 OVC140 19/03 A3002 RMK AC5AC3 PRESFR SLP178 DENSITY ALT 2700FT
CYQR 201600Z 23004KT 200V260 15SM BKN140 BKN250 17/05 A3004 RMK AC6CI1 SLP185 DENSITY ALT 2500FT
CYQR 201500Z 20005KT 160V230 15SM BKN130 15/05 A3003 RMK AC6 SLP181 DENSITY ALT 2200FT
CYQR 201400Z 24002KT 15SM FEW100 BKN250 11/05 A3004 RMK AC1CI6 AC TR SLP184
CYQR 201300Z 19003KT 15SM FEW100 FEW250 05/03 A3003 RMK AC1CI1 SLP182
CYQR 201200Z 25002KT 15SM FEW100 FEW250 04/02 A3002 RMK AC1CI1 AC TR CI TR SLP178
CYQR 201100Z 26004KT 15SM SKC 04/02 A3000 RMK SLP171
CYQR 201000Z 20004KT 15SM SKC 03/01 A2999 RMK SLP167
CYQR 200900Z 23003KT 15SM SKC 04/01 A2998 RMK SLP163
CYQR 200800Z 26005KT 15SM SKC 05/01 A2998 RMK SLP162

Click here for Saskatoon (YXE) International Weather